createdAt,value
2023-03-25T00:01:53.000Z,88
2023-03-25T00:03:20.000Z,88
2023-03-25T00:05:26.000Z,89
2023-03-25T00:06:52.000Z,89
2023-03-25T00:08:59.000Z,89
2023-03-25T00:11:50.000Z,89
2023-03-25T00:13:16.000Z,89
2023-03-25T00:15:22.000Z,89
2023-03-25T00:16:49.000Z,89
2023-03-25T00:18:55.000Z,90
2023-03-25T00:20:22.000Z,90
2023-03-25T00:22:28.000Z,90
2023-03-25T00:23:54.000Z,90
2023-03-25T00:26:00.000Z,90
2023-03-25T00:27:27.000Z,90
2023-03-25T00:29:33.000Z,90
2023-03-25T00:31:00.000Z,90
2023-03-25T00:33:06.000Z,90
2023-03-25T00:34:32.000Z,91
2023-03-25T00:36:38.000Z,91
2023-03-25T00:38:05.000Z,90
2023-03-25T00:40:11.000Z,91
2023-03-25T00:41:38.000Z,91
2023-03-25T00:43:44.000Z,90
2023-03-25T00:45:10.000Z,90
2023-03-25T00:47:16.000Z,90
2023-03-25T00:50:07.000Z,90
2023-03-25T00:51:34.000Z,90
2023-03-25T00:53:40.000Z,90
2023-03-25T00:55:07.000Z,90
2023-03-25T00:57:13.000Z,90
2023-03-25T00:58:39.000Z,90
2023-03-25T01:00:45.000Z,90
2023-03-25T01:02:12.000Z,90
2023-03-25T01:04:18.000Z,90
2023-03-25T01:05:45.000Z,90
2023-03-25T01:07:51.000Z,90
2023-03-25T01:09:17.000Z,91
2023-03-25T01:11:24.000Z,90
2023-03-25T01:12:50.000Z,90
2023-03-25T01:14:56.000Z,90
2023-03-25T01:16:23.000Z,90
2023-03-25T01:18:29.000Z,90
2023-03-25T01:19:55.000Z,90
2023-03-25T01:22:02.000Z,90
2023-03-25T01:23:28.000Z,90
2023-03-25T01:25:34.000Z,90
2023-03-25T01:28:25.000Z,90
2023-03-25T01:29:52.000Z,90
2023-03-25T01:31:58.000Z,90
2023-03-25T01:33:24.000Z,90
2023-03-25T01:35:30.000Z,90
2023-03-25T01:36:57.000Z,90
2023-03-25T01:39:03.000Z,89
2023-03-25T01:40:30.000Z,88
2023-03-25T01:42:36.000Z,89
2023-03-25T01:44:02.000Z,88
2023-03-25T01:46:08.000Z,86
2023-03-25T01:47:35.000Z,86
2023-03-25T01:49:41.000Z,87
2023-03-25T01:51:08.000Z,87
2023-03-25T01:53:14.000Z,88
2023-03-25T01:54:40.000Z,86
2023-03-25T01:56:46.000Z,86
2023-03-25T01:58:13.000Z,86
2023-03-25T02:00:19.000Z,86
2023-03-25T02:01:46.000Z,87
2023-03-25T02:03:52.000Z,87
2023-03-25T02:06:43.000Z,87
2023-03-25T02:08:10.000Z,86
2023-03-25T02:10:16.000Z,87
2023-03-25T02:11:42.000Z,87
2023-03-25T02:13:48.000Z,86
2023-03-25T02:15:15.000Z,87
2023-03-25T02:17:21.000Z,87
2023-03-25T02:18:47.000Z,87
2023-03-25T02:20:54.000Z,87
2023-03-25T02:22:20.000Z,87
2023-03-25T02:24:26.000Z,87
2023-03-25T02:25:53.000Z,87
2023-03-25T02:27:59.000Z,88
2023-03-25T02:29:25.000Z,88
2023-03-25T02:31:31.000Z,88
2023-03-25T02:32:58.000Z,88
2023-03-25T02:35:04.000Z,88
2023-03-25T02:36:31.000Z,88
2023-03-25T02:38:37.000Z,88
2023-03-25T02:40:04.000Z,88
2023-03-25T02:42:10.000Z,88
2023-03-25T02:45:01.000Z,89
2023-03-25T02:46:27.000Z,88
2023-03-25T02:48:34.000Z,88
2023-03-25T02:50:00.000Z,88
2023-03-25T02:52:06.000Z,88
2023-03-25T02:53:33.000Z,88
2023-03-25T02:55:39.000Z,89
2023-03-25T02:57:06.000Z,88
2023-03-25T02:59:12.000Z,89
2023-03-25T03:00:38.000Z,89
2023-03-25T03:02:44.000Z,89
2023-03-25T03:04:11.000Z,89
2023-03-25T03:06:17.000Z,89
2023-03-25T03:07:44.000Z,90
2023-03-25T03:09:50.000Z,90
2023-03-25T03:11:17.000Z,90
2023-03-25T03:13:23.000Z,91
2023-03-25T03:14:49.000Z,91
2023-03-25T03:16:55.000Z,92
2023-03-25T03:18:22.000Z,92
2023-03-25T03:20:28.000Z,92
2023-03-25T03:23:19.000Z,93
2023-03-25T03:24:46.000Z,94
2023-03-25T03:26:52.000Z,94
2023-03-25T03:28:18.000Z,94
2023-03-25T03:30:24.000Z,95
2023-03-25T03:31:51.000Z,95
2023-03-25T03:34:12.000Z,95
2023-03-25T03:35:39.000Z,95
2023-03-25T03:37:45.000Z,95
2023-03-25T03:39:12.000Z,96
2023-03-25T03:41:18.000Z,95
2023-03-25T03:42:44.000Z,96
2023-03-25T03:44:50.000Z,96
2023-03-25T03:46:17.000Z,96
2023-03-25T03:48:23.000Z,96
2023-03-25T03:49:50.000Z,96
2023-03-25T03:51:56.000Z,96
2023-03-25T03:53:22.000Z,97
2023-03-25T03:55:28.000Z,96
2023-03-25T03:56:55.000Z,97
2023-03-25T03:59:01.000Z,97
2023-03-25T04:01:52.000Z,97
2023-03-25T04:03:19.000Z,97
2023-03-25T04:05:25.000Z,98
2023-03-25T04:06:52.000Z,98
2023-03-25T04:08:58.000Z,98
2023-03-25T04:10:24.000Z,98
2023-03-25T04:12:30.000Z,98
2023-03-25T04:13:57.000Z,98
2023-03-25T04:16:03.000Z,99
2023-03-25T04:17:30.000Z,98
2023-03-25T04:19:36.000Z,98
2023-03-25T04:21:02.000Z,98
2023-03-25T04:23:08.000Z,98
2023-03-25T04:24:35.000Z,98
2023-03-25T04:26:41.000Z,98
2023-03-25T04:28:08.000Z,98
2023-03-25T04:30:14.000Z,97
2023-03-25T04:31:40.000Z,97
2023-03-25T04:33:46.000Z,97
2023-03-25T04:35:13.000Z,97
2023-03-25T04:37:19.000Z,96
2023-03-25T04:40:10.000Z,97
2023-03-25T04:41:37.000Z,97
2023-03-25T04:43:43.000Z,97
2023-03-25T04:45:10.000Z,95
2023-03-25T04:47:16.000Z,96
2023-03-25T04:48:42.000Z,96
2023-03-25T04:50:48.000Z,97
2023-03-25T04:52:15.000Z,96
2023-03-25T04:54:21.000Z,96
2023-03-25T04:55:48.000Z,96
2023-03-25T04:57:54.000Z,96
2023-03-25T04:59:20.000Z,96
2023-03-25T05:01:27.000Z,97
2023-03-25T05:02:53.000Z,97
2023-03-25T05:05:00.000Z,97
2023-03-25T05:06:26.000Z,97
2023-03-25T05:08:32.000Z,97
2023-03-25T05:09:59.000Z,97
2023-03-25T05:12:05.000Z,97
2023-03-25T05:13:32.000Z,97
2023-03-25T05:15:38.000Z,96
2023-03-25T05:18:29.000Z,96
2023-03-25T05:19:55.000Z,95
2023-03-25T05:22:02.000Z,95
2023-03-25T05:23:28.000Z,94
2023-03-25T05:25:34.000Z,94
2023-03-25T05:27:01.000Z,95
2023-03-25T05:29:07.000Z,94
2023-03-25T05:30:33.000Z,93
2023-03-25T05:32:39.000Z,94
2023-03-25T05:34:06.000Z,94
2023-03-25T05:36:12.000Z,94
2023-03-25T05:37:39.000Z,94
2023-03-25T05:39:45.000Z,93
2023-03-25T05:41:12.000Z,94
2023-03-25T05:43:18.000Z,94
2023-03-25T05:44:44.000Z,95
2023-03-25T05:46:50.000Z,94
2023-03-25T05:48:17.000Z,94
2023-03-25T05:50:23.000Z,94
2023-03-25T05:51:50.000Z,94
2023-03-25T05:53:56.000Z,95
2023-03-25T05:56:47.000Z,94
2023-03-25T05:58:14.000Z,94
2023-03-25T06:00:20.000Z,95
2023-03-25T06:01:50.000Z,95
2023-03-25T06:03:56.000Z,95
2023-03-25T06:05:23.000Z,95
2023-03-25T06:07:29.000Z,94
2023-03-25T06:08:55.000Z,95
2023-03-25T06:11:02.000Z,95
2023-03-25T06:12:28.000Z,95
2023-03-25T06:14:34.000Z,95
2023-03-25T06:16:01.000Z,95
2023-03-25T06:18:07.000Z,96
2023-03-25T06:19:34.000Z,96
2023-03-25T06:21:40.000Z,96
2023-03-25T06:23:06.000Z,96
2023-03-25T06:25:12.000Z,95
2023-03-25T06:26:39.000Z,96
2023-03-25T06:28:45.000Z,94
2023-03-25T06:30:11.000Z,95
2023-03-25T06:32:18.000Z,96
2023-03-25T06:35:09.000Z,96
2023-03-25T06:36:35.000Z,96
2023-03-25T06:38:41.000Z,97
2023-03-25T06:40:08.000Z,97
2023-03-25T06:42:14.000Z,97
2023-03-25T06:43:40.000Z,97
2023-03-25T06:45:46.000Z,97
2023-03-25T06:47:13.000Z,96
2023-03-25T06:49:19.000Z,98
2023-03-25T06:50:46.000Z,97
2023-03-25T06:52:52.000Z,97
2023-03-25T06:54:18.000Z,95
2023-03-25T06:56:24.000Z,94
2023-03-25T06:57:51.000Z,95
2023-03-25T06:59:57.000Z,94
2023-03-25T07:01:24.000Z,95
2023-03-25T07:03:30.000Z,95
2023-03-25T07:04:56.000Z,95
2023-03-25T07:07:03.000Z,94
2023-03-25T07:08:29.000Z,95
2023-03-25T07:10:35.000Z,94
2023-03-25T07:13:26.000Z,95
2023-03-25T07:14:53.000Z,94
2023-03-25T07:16:59.000Z,95
2023-03-25T07:18:25.000Z,95
2023-03-25T07:20:31.000Z,94
2023-03-25T07:21:58.000Z,93
2023-03-25T07:24:04.000Z,95
2023-03-25T07:25:30.000Z,95
2023-03-25T07:27:37.000Z,93
2023-03-25T07:29:03.000Z,93
2023-03-25T07:31:09.000Z,93
2023-03-25T07:32:36.000Z,93
2023-03-25T07:34:42.000Z,93
2023-03-25T07:36:08.000Z,91
2023-03-25T07:38:14.000Z,92
2023-03-25T07:39:41.000Z,92
2023-03-25T07:41:47.000Z,92
2023-03-25T07:43:14.000Z,91
2023-03-25T07:45:20.000Z,92
2023-03-25T07:46:46.000Z,91
2023-03-25T07:48:53.000Z,92
2023-03-25T07:51:44.000Z,91
2023-03-25T07:53:10.000Z,91
2023-03-25T07:55:16.000Z,91
2023-03-25T07:56:43.000Z,92
2023-03-25T07:58:49.000Z,90
2023-03-25T08:00:16.000Z,90
2023-03-25T08:02:22.000Z,92
2023-03-25T08:03:48.000Z,91
2023-03-25T08:05:55.000Z,91
2023-03-25T08:07:21.000Z,91
2023-03-25T08:09:28.000Z,93
2023-03-25T08:10:54.000Z,92
2023-03-25T08:13:00.000Z,91
2023-03-25T08:14:27.000Z,89
2023-03-25T08:16:33.000Z,89
2023-03-25T08:17:59.000Z,91
2023-03-25T08:20:05.000Z,90
2023-03-25T08:21:32.000Z,91
2023-03-25T08:23:38.000Z,91
2023-03-25T08:25:04.000Z,90
2023-03-25T08:27:11.000Z,92
2023-03-25T08:30:07.000Z,92
2023-03-25T08:31:33.000Z,91
2023-03-25T08:33:40.000Z,91
2023-03-25T08:35:06.000Z,90
2023-03-25T08:37:12.000Z,90
2023-03-25T08:38:39.000Z,90
2023-03-25T08:40:45.000Z,91
2023-03-25T08:42:11.000Z,89
2023-03-25T08:44:17.000Z,89
2023-03-25T08:45:44.000Z,90
2023-03-25T08:47:50.000Z,89
2023-03-25T08:49:16.000Z,89
2023-03-25T08:51:22.000Z,89
2023-03-25T08:52:49.000Z,89
2023-03-25T08:54:55.000Z,90
2023-03-25T08:56:22.000Z,88
2023-03-25T08:58:28.000Z,88
2023-03-25T08:59:54.000Z,88
2023-03-25T09:02:00.000Z,88
2023-03-25T09:03:28.000Z,89
2023-03-25T09:05:34.000Z,88
2023-03-25T09:08:25.000Z,88
2023-03-25T09:09:52.000Z,87
2023-03-25T09:11:58.000Z,86
2023-03-25T09:13:24.000Z,86
2023-03-25T09:15:30.000Z,87
2023-03-25T09:16:57.000Z,86
2023-03-25T09:19:03.000Z,86
2023-03-25T09:20:30.000Z,85
2023-03-25T09:22:36.000Z,86
2023-03-25T09:24:02.000Z,86
2023-03-25T09:26:08.000Z,85
2023-03-25T09:27:35.000Z,86
2023-03-25T09:29:41.000Z,84
2023-03-25T09:31:08.000Z,83
2023-03-25T09:33:14.000Z,84
2023-03-25T09:34:40.000Z,83
2023-03-25T09:36:47.000Z,83
2023-03-25T09:38:13.000Z,85
2023-03-25T09:40:19.000Z,84
2023-03-25T09:41:46.000Z,84
2023-03-25T09:43:52.000Z,84
2023-03-25T09:46:43.000Z,83
2023-03-25T09:48:10.000Z,83
2023-03-25T09:50:16.000Z,85
2023-03-25T09:51:42.000Z,84
2023-03-25T09:53:48.000Z,85
2023-03-25T09:55:15.000Z,86
2023-03-25T09:57:21.000Z,85
2023-03-25T09:58:48.000Z,86
2023-03-25T10:00:54.000Z,86
2023-03-25T10:02:21.000Z,88
2023-03-25T10:04:27.000Z,88
2023-03-25T10:05:53.000Z,87
2023-03-25T10:08:00.000Z,89
2023-03-25T10:09:26.000Z,87
2023-03-25T10:11:32.000Z,87
2023-03-25T10:12:59.000Z,87
2023-03-25T10:15:05.000Z,89
2023-03-25T10:16:31.000Z,83
2023-03-25T10:18:37.000Z,86
2023-03-25T10:20:04.000Z,87
2023-03-25T10:22:10.000Z,88
2023-03-25T10:25:01.000Z,91
2023-03-25T10:26:28.000Z,91
2023-03-25T10:28:34.000Z,92
2023-03-25T10:30:00.000Z,92
2023-03-25T10:32:06.000Z,92
2023-03-25T10:33:33.000Z,92
2023-03-25T10:35:39.000Z,92
2023-03-25T10:37:05.000Z,92
2023-03-25T10:39:12.000Z,93
2023-03-25T10:40:38.000Z,93
2023-03-25T10:42:44.000Z,93
2023-03-25T10:44:11.000Z,94
2023-03-25T10:46:17.000Z,94
2023-03-25T10:47:44.000Z,95
2023-03-25T10:49:50.000Z,94
2023-03-25T10:51:16.000Z,94
2023-03-25T10:53:22.000Z,93
2023-03-25T10:54:49.000Z,94
2023-03-25T10:56:55.000Z,94
2023-03-25T10:58:22.000Z,94
2023-03-25T11:00:28.000Z,95
2023-03-25T11:03:19.000Z,95
2023-03-25T11:04:45.000Z,95
2023-03-25T11:06:52.000Z,95
2023-03-25T11:08:18.000Z,92
2023-03-25T11:10:31.000Z,94
2023-03-25T11:11:57.000Z,93
2023-03-25T11:14:04.000Z,93
2023-03-25T11:15:30.000Z,92
2023-03-25T11:17:36.000Z,94
2023-03-25T11:19:03.000Z,93
2023-03-25T11:21:09.000Z,95
2023-03-25T11:22:35.000Z,94
2023-03-25T11:24:42.000Z,93
2023-03-25T11:26:08.000Z,93
2023-03-25T11:28:14.000Z,92
2023-03-25T11:29:41.000Z,92
2023-03-25T11:31:47.000Z,95
2023-03-25T11:33:14.000Z,93
2023-03-25T11:35:20.000Z,93
2023-03-25T11:36:46.000Z,92
2023-03-25T11:38:53.000Z,91
2023-03-25T11:41:43.000Z,93
2023-03-25T11:43:10.000Z,89
2023-03-25T11:45:16.000Z,90
2023-03-25T11:46:43.000Z,92
2023-03-25T11:48:49.000Z,92
2023-03-25T11:50:15.000Z,90
2023-03-25T11:52:22.000Z,90
2023-03-25T11:53:48.000Z,89
2023-03-25T11:55:54.000Z,90
2023-03-25T11:57:21.000Z,89
2023-03-25T11:59:27.000Z,89
2023-03-25T12:00:53.000Z,87
2023-03-25T12:02:59.000Z,87
2023-03-25T12:04:26.000Z,89
2023-03-25T12:06:32.000Z,87
2023-03-25T12:07:59.000Z,88
2023-03-25T12:10:05.000Z,87
2023-03-25T12:11:32.000Z,88
2023-03-25T12:13:38.000Z,88
2023-03-25T12:15:04.000Z,86
2023-03-25T12:17:10.000Z,87
2023-03-25T12:20:01.000Z,86
2023-03-25T12:21:28.000Z,86
2023-03-25T12:23:34.000Z,88
2023-03-25T12:25:01.000Z,87
2023-03-25T12:27:07.000Z,88
2023-03-25T12:28:33.000Z,87
2023-03-25T12:30:39.000Z,88
2023-03-25T12:32:06.000Z,86
2023-03-25T12:34:12.000Z,83
2023-03-25T12:35:39.000Z,84
2023-03-25T12:37:45.000Z,83
2023-03-25T12:39:11.000Z,84
2023-03-25T12:41:17.000Z,81
2023-03-25T12:42:44.000Z,83
2023-03-25T12:44:50.000Z,80
2023-03-25T12:46:16.000Z,83
2023-03-25T12:48:23.000Z,82
2023-03-25T12:49:49.000Z,81
2023-03-25T12:51:55.000Z,78
2023-03-25T12:53:22.000Z,75
2023-03-25T12:55:28.000Z,76
2023-03-25T12:58:19.000Z,77
2023-03-25T12:59:46.000Z,75
2023-03-25T13:01:52.000Z,75
2023-03-25T13:03:18.000Z,74
2023-03-25T13:05:25.000Z,73
2023-03-25T13:06:51.000Z,70
2023-03-25T13:08:57.000Z,73
2023-03-25T13:10:24.000Z,74
2023-03-25T13:12:30.000Z,71
2023-03-25T13:13:56.000Z,71
2023-03-25T13:16:02.000Z,71
2023-03-25T13:17:29.000Z,71
2023-03-25T13:19:35.000Z,69
2023-03-25T13:21:02.000Z,71
2023-03-25T13:23:19.000Z,73
2023-03-25T13:24:45.000Z,69
2023-03-25T13:26:51.000Z,69
2023-03-25T13:28:18.000Z,71
2023-03-25T13:30:24.000Z,69
2023-03-25T13:31:50.000Z,69
2023-03-25T13:33:57.000Z,69
2023-03-25T13:36:48.000Z,65
2023-03-25T13:38:14.000Z,64
2023-03-25T13:40:20.000Z,67
2023-03-25T13:41:47.000Z,67
2023-03-25T13:43:53.000Z,68
2023-03-25T13:45:19.000Z,65
2023-03-25T13:47:26.000Z,64
2023-03-25T13:48:52.000Z,64
2023-03-25T13:50:58.000Z,63
2023-03-25T13:52:25.000Z,64
2023-03-25T13:54:31.000Z,65
2023-03-25T13:55:57.000Z,65
2023-03-25T13:58:03.000Z,65
2023-03-25T13:59:30.000Z,67
2023-03-25T14:01:36.000Z,65
2023-03-25T14:03:03.000Z,66
2023-03-25T14:05:09.000Z,68
2023-03-25T14:06:36.000Z,74
2023-03-25T14:08:42.000Z,75
2023-03-25T14:10:08.000Z,77
2023-03-25T14:12:14.000Z,76
2023-03-25T14:15:05.000Z,75
2023-03-25T14:16:32.000Z,74
2023-03-25T14:18:38.000Z,73
2023-03-25T14:20:05.000Z,74
2023-03-25T14:22:11.000Z,77
2023-03-25T14:23:38.000Z,75
2023-03-25T14:25:44.000Z,77
2023-03-25T14:27:10.000Z,79
2023-03-25T14:29:16.000Z,77
2023-03-25T14:30:43.000Z,79
2023-03-25T14:32:49.000Z,81
2023-03-25T14:34:15.000Z,80
2023-03-25T14:36:22.000Z,81
2023-03-25T14:37:48.000Z,82
2023-03-25T14:39:54.000Z,80
2023-03-25T14:41:21.000Z,81
2023-03-25T14:43:27.000Z,81
2023-03-25T14:44:53.000Z,78
2023-03-25T14:47:00.000Z,79
2023-03-25T14:48:26.000Z,82
2023-03-25T14:50:32.000Z,82
2023-03-25T14:53:23.000Z,82
2023-03-25T14:54:50.000Z,80
2023-03-25T14:56:56.000Z,80
2023-03-25T14:58:23.000Z,78
2023-03-25T15:00:29.000Z,80
2023-03-25T15:01:56.000Z,80
2023-03-25T15:04:02.000Z,79
2023-03-25T15:05:28.000Z,79
2023-03-25T15:07:35.000Z,75
2023-03-25T15:09:01.000Z,73
2023-03-25T15:11:07.000Z,76
2023-03-25T15:12:34.000Z,73
2023-03-25T15:14:40.000Z,74
2023-03-25T15:16:06.000Z,75
2023-03-25T15:18:12.000Z,74
2023-03-25T15:19:39.000Z,75
2023-03-25T15:21:45.000Z,72
2023-03-25T15:23:12.000Z,70
2023-03-25T15:25:18.000Z,70
2023-03-25T15:26:45.000Z,68
2023-03-25T15:28:51.000Z,69
2023-03-25T15:31:42.000Z,70
2023-03-25T15:33:09.000Z,70
2023-03-25T15:35:15.000Z,68
2023-03-25T15:36:41.000Z,67
2023-03-25T15:38:47.000Z,65
2023-03-25T15:40:14.000Z,64
2023-03-25T15:42:20.000Z,64
2023-03-25T15:43:46.000Z,63
2023-03-25T15:46:06.000Z,66
2023-03-25T15:47:33.000Z,64
2023-03-25T15:49:39.000Z,65
2023-03-25T15:51:06.000Z,63
2023-03-25T15:53:12.000Z,63
2023-03-25T15:54:38.000Z,65
2023-03-25T15:56:44.000Z,64
2023-03-25T15:58:11.000Z,64
2023-03-25T16:00:17.000Z,65
2023-03-25T16:01:44.000Z,65
2023-03-25T16:03:50.000Z,65
2023-03-25T16:05:17.000Z,63
2023-03-25T16:07:23.000Z,62
2023-03-25T16:10:14.000Z,63
2023-03-25T16:11:40.000Z,65
2023-03-25T16:13:46.000Z,64
2023-03-25T16:15:13.000Z,65
2023-03-25T16:17:19.000Z,62
2023-03-25T16:18:46.000Z,62
2023-03-25T16:20:52.000Z,64
2023-03-25T16:22:19.000Z,62
2023-03-25T16:24:25.000Z,64
2023-03-25T16:25:51.000Z,63
2023-03-25T16:28:00.000Z,67
2023-03-25T16:29:27.000Z,67
2023-03-25T16:31:33.000Z,68
2023-03-25T16:33:01.000Z,65
2023-03-25T16:35:07.000Z,65
2023-03-25T16:36:34.000Z,67
2023-03-25T16:38:40.000Z,68
2023-03-25T16:40:06.000Z,66
2023-03-25T16:42:12.000Z,69
2023-03-25T16:43:39.000Z,68
2023-03-25T16:45:45.000Z,71
2023-03-25T16:48:36.000Z,71
2023-03-25T16:50:03.000Z,74
2023-03-25T16:52:09.000Z,73
2023-03-25T16:53:36.000Z,76
2023-03-25T16:55:42.000Z,75
2023-03-25T16:57:08.000Z,78
2023-03-25T16:59:14.000Z,78
2023-03-25T17:00:41.000Z,78
2023-03-25T17:02:47.000Z,78
2023-03-25T17:04:14.000Z,77
2023-03-25T17:06:20.000Z,79
2023-03-25T17:07:46.000Z,79
2023-03-25T17:09:53.000Z,80
2023-03-25T17:11:19.000Z,80
2023-03-25T17:13:25.000Z,80
2023-03-25T17:14:52.000Z,81
2023-03-25T17:16:58.000Z,80
2023-03-25T17:18:24.000Z,80
2023-03-25T17:20:30.000Z,82
2023-03-25T17:21:57.000Z,81
2023-03-25T17:24:03.000Z,81
2023-03-25T17:26:54.000Z,82
2023-03-25T17:28:21.000Z,82
2023-03-25T17:30:27.000Z,81
2023-03-25T17:31:53.000Z,82
2023-03-25T17:33:59.000Z,80
2023-03-25T17:35:26.000Z,79
2023-03-25T17:37:32.000Z,81
2023-03-25T17:38:58.000Z,81
2023-03-25T17:41:07.000Z,80
2023-03-25T17:42:34.000Z,82
2023-03-25T17:44:40.000Z,80
2023-03-25T17:46:06.000Z,82
2023-03-25T17:48:13.000Z,82
2023-03-25T17:49:39.000Z,82
2023-03-25T17:51:45.000Z,82
2023-03-25T17:53:12.000Z,82
2023-03-25T17:55:18.000Z,82
2023-03-25T17:56:44.000Z,84
2023-03-25T17:58:50.000Z,83
2023-03-25T18:00:17.000Z,82
2023-03-25T18:02:23.000Z,83
2023-03-25T18:05:14.000Z,82
2023-03-25T18:06:41.000Z,83
2023-03-25T18:08:47.000Z,83
2023-03-25T18:10:13.000Z,82
2023-03-25T18:12:19.000Z,79
2023-03-25T18:13:46.000Z,78
2023-03-25T18:15:52.000Z,77
2023-03-25T18:17:18.000Z,76
2023-03-25T18:19:24.000Z,77
2023-03-25T18:20:51.000Z,75
2023-03-25T18:22:57.000Z,75
2023-03-25T18:24:24.000Z,74
2023-03-25T18:26:30.000Z,73
2023-03-25T18:27:57.000Z,73
2023-03-25T18:30:03.000Z,74
2023-03-25T18:31:29.000Z,72
2023-03-25T18:33:36.000Z,73
2023-03-25T18:35:02.000Z,73
2023-03-25T18:37:08.000Z,73
2023-03-25T18:38:35.000Z,73
2023-03-25T18:40:41.000Z,73
2023-03-25T18:43:32.000Z,73
2023-03-25T18:44:58.000Z,72
2023-03-25T18:47:04.000Z,73
2023-03-25T18:48:31.000Z,74
2023-03-25T18:50:37.000Z,73
2023-03-25T18:52:04.000Z,73
2023-03-25T18:54:10.000Z,74
2023-03-25T18:55:36.000Z,74
2023-03-25T18:57:42.000Z,76
2023-03-25T18:59:09.000Z,77
2023-03-25T19:01:15.000Z,78
2023-03-25T19:02:41.000Z,79
2023-03-25T19:04:48.000Z,78
2023-03-25T19:06:27.000Z,79
2023-03-25T19:08:33.000Z,78
2023-03-25T19:10:00.000Z,79
2023-03-25T19:12:06.000Z,79
2023-03-25T19:13:32.000Z,79
2023-03-25T19:15:38.000Z,80
2023-03-25T19:17:05.000Z,79
2023-03-25T19:19:11.000Z,81
2023-03-25T19:22:02.000Z,79
2023-03-25T19:23:29.000Z,79
2023-03-25T19:25:35.000Z,79
2023-03-25T19:27:01.000Z,79
2023-03-25T19:29:08.000Z,78
2023-03-25T19:30:34.000Z,78
2023-03-25T19:32:40.000Z,75
2023-03-25T19:34:07.000Z,75
2023-03-25T19:36:13.000Z,76
2023-03-25T19:37:40.000Z,76
2023-03-25T19:39:46.000Z,76
2023-03-25T19:41:12.000Z,74
2023-03-25T19:43:18.000Z,75
2023-03-25T19:44:45.000Z,75
2023-03-25T19:46:53.000Z,75
2023-03-25T19:48:19.000Z,75
2023-03-25T19:50:25.000Z,75
2023-03-25T19:51:52.000Z,74
2023-03-25T19:53:58.000Z,74
2023-03-25T19:55:25.000Z,74
2023-03-25T19:57:31.000Z,77
2023-03-25T20:00:22.000Z,78
2023-03-25T20:01:48.000Z,81
2023-03-25T20:03:55.000Z,85
2023-03-25T20:05:21.000Z,86
2023-03-25T20:07:27.000Z,89
2023-03-25T20:08:54.000Z,89
2023-03-25T20:11:00.000Z,89
2023-03-25T20:12:26.000Z,91
2023-03-25T20:14:32.000Z,91
2023-03-25T20:15:59.000Z,91
2023-03-25T20:18:05.000Z,91
2023-03-25T20:19:31.000Z,91
2023-03-25T20:21:38.000Z,91
2023-03-25T20:23:04.000Z,91
2023-03-25T20:25:10.000Z,92
2023-03-25T20:26:37.000Z,92
2023-03-25T20:28:43.000Z,91
2023-03-25T20:30:09.000Z,93
2023-03-25T20:32:16.000Z,92
2023-03-25T20:33:42.000Z,92
2023-03-25T20:35:48.000Z,92
2023-03-25T20:38:40.000Z,91
2023-03-25T20:40:22.000Z,90
2023-03-25T20:42:43.000Z,91
2023-03-25T20:44:10.000Z,91
2023-03-25T20:46:16.000Z,91
2023-03-25T20:47:42.000Z,92
2023-03-25T20:49:48.000Z,93
2023-03-25T20:51:15.000Z,94
2023-03-25T20:53:21.000Z,95
2023-03-25T20:54:48.000Z,96
2023-03-25T20:56:54.000Z,96
2023-03-25T20:58:20.000Z,96
2023-03-25T21:00:26.000Z,95
2023-03-25T21:01:53.000Z,96
2023-03-25T21:03:59.000Z,96
2023-03-25T21:05:26.000Z,96
2023-03-25T21:07:32.000Z,97
2023-03-25T21:08:58.000Z,96
2023-03-25T21:11:13.000Z,97
2023-03-25T21:12:39.000Z,97
2023-03-25T21:14:50.000Z,97
2023-03-25T21:17:41.000Z,96
2023-03-25T21:19:08.000Z,96
2023-03-25T21:21:14.000Z,96
2023-03-25T21:22:40.000Z,96
2023-03-25T21:24:46.000Z,97
2023-03-25T21:26:13.000Z,96
2023-03-25T21:28:19.000Z,96
2023-03-25T21:29:45.000Z,96
2023-03-25T21:31:52.000Z,97
2023-03-25T21:33:18.000Z,97
2023-03-25T21:35:24.000Z,97
2023-03-25T21:36:51.000Z,98
2023-03-25T21:38:57.000Z,96
2023-03-25T21:40:24.000Z,97
2023-03-25T21:42:30.000Z,97
2023-03-25T21:43:56.000Z,96
2023-03-25T21:46:03.000Z,96
2023-03-25T21:47:32.000Z,97
2023-03-25T21:49:38.000Z,96
2023-03-25T21:51:04.000Z,97
2023-03-25T21:53:10.000Z,98
2023-03-25T21:56:01.000Z,97
2023-03-25T21:57:28.000Z,97
2023-03-25T21:59:34.000Z,97
2023-03-25T22:01:00.000Z,97
2023-03-25T22:03:07.000Z,97
2023-03-25T22:04:33.000Z,97
2023-03-25T22:06:39.000Z,97
2023-03-25T22:08:06.000Z,97
2023-03-25T22:10:12.000Z,97
2023-03-25T22:11:39.000Z,97
2023-03-25T22:13:45.000Z,97
2023-03-25T22:15:11.000Z,97
2023-03-25T22:17:17.000Z,97
2023-03-25T22:18:44.000Z,97
2023-03-25T22:20:50.000Z,97
2023-03-25T22:22:16.000Z,97
2023-03-25T22:24:22.000Z,97
2023-03-25T22:25:49.000Z,97
2023-03-25T22:27:55.000Z,97
2023-03-25T22:29:22.000Z,97
2023-03-25T22:31:28.000Z,97
2023-03-25T22:34:19.000Z,97
2023-03-25T22:35:46.000Z,97
2023-03-25T22:37:52.000Z,97
2023-03-25T22:39:18.000Z,97
2023-03-25T22:41:24.000Z,98
2023-03-25T22:42:51.000Z,98
2023-03-25T22:44:57.000Z,98
2023-03-25T22:46:24.000Z,98
2023-03-25T22:48:30.000Z,98
2023-03-25T22:49:56.000Z,98
2023-03-25T22:52:02.000Z,98
2023-03-25T22:53:29.000Z,98
2023-03-25T22:55:35.000Z,98
2023-03-25T22:57:01.000Z,99
2023-03-25T22:59:08.000Z,98
2023-03-25T23:00:34.000Z,98
2023-03-25T23:02:40.000Z,98
2023-03-25T23:04:07.000Z,98
2023-03-25T23:06:13.000Z,98
2023-03-25T23:07:39.000Z,98
2023-03-25T23:09:46.000Z,98
2023-03-25T23:12:37.000Z,98
2023-03-25T23:14:03.000Z,98
2023-03-25T23:16:10.000Z,98
2023-03-25T23:17:36.000Z,98
2023-03-25T23:19:42.000Z,98
2023-03-25T23:21:09.000Z,97
2023-03-25T23:23:15.000Z,97
2023-03-25T23:24:41.000Z,97
2023-03-25T23:26:48.000Z,98
2023-03-25T23:28:14.000Z,97
2023-03-25T23:30:20.000Z,97
2023-03-25T23:31:47.000Z,97
2023-03-25T23:33:53.000Z,97
2023-03-25T23:35:19.000Z,97
2023-03-25T23:37:26.000Z,97
2023-03-25T23:38:52.000Z,97
2023-03-25T23:40:58.000Z,97
2023-03-25T23:42:25.000Z,97
2023-03-25T23:44:41.000Z,97
2023-03-25T23:46:07.000Z,97
2023-03-25T23:48:13.000Z,97
2023-03-25T23:51:05.000Z,97
2023-03-25T23:52:31.000Z,97
2023-03-25T23:54:37.000Z,97
2023-03-25T23:56:04.000Z,96
2023-03-25T23:58:10.000Z,96
2023-03-25T23:59:37.000Z,97
